createdAt,value
2018-04-10T00:01:15.500Z,4.80
2018-04-10T00:03:43.899Z,5.40
2018-04-10T00:06:12.305Z,3.87
2018-04-10T00:08:40.757Z,4.23
2018-04-10T00:11:09.194Z,4.70
2018-04-10T00:13:37.618Z,4.47
2018-04-10T00:16:06.031Z,4.63
2018-04-10T00:18:34.446Z,3.60
2018-04-10T00:21:02.850Z,4.50
2018-04-10T00:23:31.303Z,3.93
2018-04-10T00:25:59.718Z,4.07
2018-04-10T00:28:28.478Z,3.80
2018-04-10T00:30:56.903Z,4.33
2018-04-10T00:33:25.380Z,4.43
2018-04-10T00:35:53.762Z,3.87
2018-04-10T00:38:22.207Z,4.57
2018-04-10T00:40:50.630Z,4.17
2018-04-10T00:43:19.067Z,4.20
2018-04-10T00:45:47.510Z,4.67
2018-04-10T00:48:15.945Z,4.63
2018-04-10T00:50:44.396Z,4.63
2018-04-10T00:53:36.885Z,4.53
2018-04-10T00:56:05.297Z,4.80
2018-04-10T00:58:33.777Z,4.60
2018-04-10T01:01:02.160Z,5.23
2018-04-10T01:03:30.567Z,4.40
2018-04-10T01:05:58.988Z,4.97
2018-04-10T01:08:27.447Z,4.77
2018-04-10T01:10:55.843Z,4.53
2018-04-10T01:13:24.274Z,4.40
2018-04-10T01:15:52.668Z,4.30
2018-04-10T01:18:21.087Z,4.40
2018-04-10T01:20:49.506Z,4.43
2018-04-10T01:23:18.286Z,4.40
2018-04-10T01:25:46.734Z,4.83
2018-04-10T01:28:15.204Z,4.90
2018-04-10T01:30:43.627Z,4.97
2018-04-10T01:33:12.078Z,5.00
2018-04-10T01:35:40.555Z,4.53
2018-04-10T01:38:08.979Z,4.60
2018-04-10T01:40:37.423Z,4.37
2018-04-10T01:43:05.857Z,4.90
2018-04-10T01:45:34.305Z,4.53
2018-04-10T01:48:02.691Z,4.10
2018-04-10T01:50:31.187Z,4.87
2018-04-10T01:52:59.622Z,4.17
2018-04-10T01:55:28.040Z,4.43
2018-04-10T01:57:56.428Z,4.47
2018-04-10T02:00:24.869Z,4.70
2018-04-10T02:02:53.326Z,4.73
2018-04-10T02:05:21.769Z,4.70
2018-04-10T02:07:50.140Z,4.00
2018-04-10T02:10:18.618Z,4.33
2018-04-10T02:12:47.278Z,4.57
2018-04-10T02:15:15.736Z,5.00
2018-04-10T02:17:44.198Z,5.57
2018-04-10T02:20:12.629Z,5.37
2018-04-10T02:22:41.070Z,5.80
2018-04-10T02:25:09.560Z,6.00
2018-04-10T02:27:37.984Z,4.93
2018-04-10T02:30:06.464Z,6.37
2018-04-10T02:32:34.922Z,5.27
2018-04-10T02:35:03.582Z,5.30
2018-04-10T02:37:32.014Z,5.37
2018-04-10T02:40:00.516Z,5.80
2018-04-10T02:42:28.994Z,6.33
2018-04-10T02:44:57.499Z,5.77
2018-04-10T02:47:25.911Z,5.53
2018-04-10T02:49:54.306Z,6.00
2018-04-10T02:52:22.766Z,6.40
2018-04-10T02:54:51.237Z,7.10
2018-04-10T02:57:19.837Z,6.50
2018-04-10T02:59:48.295Z,7.30
2018-04-10T03:02:16.767Z,7.07
2018-04-10T03:04:45.332Z,8.57
2018-04-10T03:07:13.792Z,7.90
2018-04-10T03:09:42.334Z,7.73
2018-04-10T03:12:10.807Z,7.40
2018-04-10T03:14:39.256Z,8.00
2018-04-10T03:17:07.667Z,6.13
2018-04-10T03:19:36.175Z,8.17
2018-04-10T03:22:04.743Z,8.83
2018-04-10T03:24:33.229Z,9.43
2018-04-10T03:27:01.670Z,9.07
2018-04-10T03:29:30.249Z,9.10
2018-04-10T03:31:58.702Z,9.30
2018-04-10T03:34:27.217Z,8.53
2018-04-10T03:36:55.682Z,9.50
2018-04-10T03:39:24.180Z,7.40
2018-04-10T03:41:52.660Z,6.90
2018-04-10T03:44:21.151Z,8.13
2018-04-10T03:46:49.576Z,8.00
2018-04-10T03:49:18.068Z,7.43
2018-04-10T03:51:46.511Z,8.40
2018-04-10T03:54:14.986Z,7.53
2018-04-10T03:56:43.420Z,8.20
2018-04-10T03:59:11.831Z,6.70
2018-04-10T04:01:40.283Z,6.30
2018-04-10T04:04:08.713Z,6.50
2018-04-10T04:06:37.122Z,7.53
2018-04-10T04:09:05.625Z,7.17
2018-04-10T04:11:34.095Z,8.30
2018-04-10T04:14:02.580Z,8.87
2018-04-10T04:16:43.019Z,9.40
2018-04-10T04:19:23.392Z,8.90
2018-04-10T04:22:04.113Z,9.60
2018-04-10T04:24:32.562Z,9.47
2018-04-10T04:27:00.942Z,8.90
2018-04-10T04:29:29.496Z,11.67
2018-04-10T04:31:57.926Z,9.20
2018-04-10T04:34:26.361Z,9.73
2018-04-10T04:36:54.793Z,10.23
2018-04-10T04:39:23.191Z,11.30
2018-04-10T04:41:51.659Z,10.47
2018-04-10T04:44:20.104Z,9.67
2018-04-10T04:46:48.555Z,12.90
2018-04-10T04:49:17.013Z,9.10
2018-04-10T04:51:45.387Z,10.03
2018-04-10T04:54:13.871Z,10.60
2018-04-10T04:56:42.293Z,9.80
2018-04-10T04:59:10.790Z,6.50
2018-04-10T05:01:39.176Z,9.80
2018-04-10T05:04:07.564Z,11.07
2018-04-10T05:06:36.060Z,8.93
2018-04-10T05:09:07.477Z,9.77
2018-04-10T05:11:35.927Z,8.90
2018-04-10T05:14:04.382Z,9.70
2018-04-10T05:16:32.809Z,9.00
2018-04-10T05:19:01.539Z,8.13
2018-04-10T05:21:29.985Z,8.03
2018-04-10T05:23:58.447Z,9.90
2018-04-10T05:26:26.892Z,9.00
2018-04-10T05:28:55.326Z,9.40
2018-04-10T05:31:23.727Z,9.77
2018-04-10T05:33:52.165Z,10.77
2018-04-10T05:36:20.619Z,11.00
2018-04-10T05:38:49.103Z,11.33
2018-04-10T05:41:17.794Z,11.70
2018-04-10T05:43:46.312Z,12.40
2018-04-10T05:46:14.711Z,10.03
2018-04-10T05:48:43.163Z,9.30
2018-04-10T05:51:11.543Z,9.80
2018-04-10T05:53:39.996Z,11.53
2018-04-10T05:56:08.404Z,10.67
2018-04-10T05:58:36.845Z,10.97
2018-04-10T06:01:05.294Z,11.00
2018-04-10T06:03:33.719Z,10.03
2018-04-10T06:06:02.184Z,10.03
2018-04-10T06:08:30.632Z,10.40
2018-04-10T06:10:59.044Z,8.30
2018-04-10T06:13:27.478Z,7.77
2018-04-10T06:15:55.875Z,8.53
2018-04-10T06:18:24.330Z,7.83
2018-04-10T06:20:52.796Z,7.10
2018-04-10T06:23:21.256Z,8.10
2018-04-10T06:25:49.881Z,7.80
2018-04-10T06:28:18.351Z,7.53
2018-04-10T06:30:46.723Z,8.17
2018-04-10T06:33:15.124Z,8.23
2018-04-10T06:35:43.559Z,8.47
2018-04-10T06:38:12.002Z,9.07
2018-04-10T06:40:43.694Z,12.63
2018-04-10T06:43:12.146Z,13.77
2018-04-10T06:45:40.583Z,12.10
2018-04-10T06:48:09.052Z,11.53
2018-04-10T06:50:37.462Z,10.07
2018-04-10T06:53:05.930Z,12.10
2018-04-10T06:55:34.398Z,13.00
2018-04-10T06:58:02.795Z,14.90
2018-04-10T07:00:31.246Z,15.10
2018-04-10T07:02:59.739Z,13.53
2018-04-10T07:05:28.187Z,13.60
2018-04-10T07:07:56.660Z,15.27
2018-04-10T07:10:25.462Z,14.37
2018-04-10T07:12:54.274Z,15.00
2018-04-10T07:15:22.743Z,14.73
2018-04-10T07:17:51.196Z,14.73
2018-04-10T07:20:19.671Z,14.20
2018-04-10T07:22:48.080Z,13.60
2018-04-10T07:25:16.534Z,12.67
2018-04-10T07:27:44.994Z,12.97
2018-04-10T07:30:13.631Z,12.70
2018-04-10T07:32:42.354Z,12.83
2018-04-10T07:35:10.889Z,13.53
2018-04-10T07:37:39.312Z,15.17
2018-04-10T07:40:07.843Z,14.40
2018-04-10T07:42:36.238Z,15.60
2018-04-10T07:45:04.731Z,14.87
2018-04-10T07:47:33.555Z,14.60
2018-04-10T07:50:01.975Z,15.17
2018-04-10T07:52:30.385Z,12.40
2018-04-10T07:54:59.265Z,12.83
2018-04-10T07:57:27.727Z,12.60
2018-04-10T07:59:56.248Z,12.93
2018-04-10T08:02:25.056Z,12.67
2018-04-10T08:04:53.510Z,12.87
2018-04-10T08:07:21.931Z,10.67
2018-04-10T08:09:50.625Z,11.50
2018-04-10T08:12:19.054Z,12.33
2018-04-10T08:14:47.517Z,12.47
2018-04-10T08:17:16.176Z,12.20
2018-04-10T08:19:44.566Z,12.43
2018-04-10T08:22:13.024Z,12.80
2018-04-10T08:24:41.499Z,11.83
2018-04-10T08:27:09.971Z,11.57
2018-04-10T08:29:38.395Z,12.30
2018-04-10T08:32:06.839Z,11.93
2018-04-10T08:34:35.299Z,11.73
2018-04-10T08:37:03.726Z,10.30
2018-04-10T08:39:32.152Z,7.80
2018-04-10T08:42:00.762Z,8.00
2018-04-10T08:44:29.167Z,6.87
2018-04-10T08:46:57.580Z,7.13
2018-04-10T08:49:25.968Z,6.60
2018-04-10T08:51:54.359Z,7.87
2018-04-10T08:54:22.796Z,8.03
2018-04-10T08:56:51.259Z,8.47
2018-04-10T08:59:19.667Z,8.30
2018-04-10T09:01:48.119Z,6.93
2018-04-10T09:04:16.527Z,6.53
2018-04-10T09:06:44.951Z,6.80
2018-04-10T09:09:13.415Z,6.60
2018-04-10T09:11:42.049Z,5.50
2018-04-10T09:14:10.596Z,5.20
2018-04-10T09:16:39.044Z,4.70
2018-04-10T09:19:07.520Z,5.97
2018-04-10T09:21:35.972Z,5.40
2018-04-10T09:24:04.416Z,5.57
2018-04-10T09:26:32.850Z,4.77
2018-04-10T09:29:01.251Z,4.43
2018-04-10T09:31:29.691Z,4.47
2018-04-10T09:33:58.095Z,4.40
2018-04-10T09:36:26.527Z,3.70
2018-04-10T09:38:55.063Z,4.90
2018-04-10T09:41:23.553Z,4.17
2018-04-10T09:43:51.936Z,4.73
2018-04-10T09:46:20.365Z,5.23
2018-04-10T09:48:48.799Z,4.60
2018-04-10T09:51:17.443Z,4.40
2018-04-10T09:53:45.907Z,4.07
2018-04-10T09:56:14.362Z,4.77
2018-04-10T09:58:42.867Z,4.60
2018-04-10T10:01:11.298Z,5.00
2018-04-10T10:03:39.723Z,5.03
2018-04-10T10:06:08.131Z,5.57
2018-04-10T10:08:36.621Z,5.77
2018-04-10T10:11:05.167Z,5.60
2018-04-10T10:13:33.691Z,4.73
2018-04-10T10:16:02.151Z,5.67
2018-04-10T10:18:30.564Z,5.57
2018-04-10T10:20:59.048Z,5.23
2018-04-10T10:23:27.481Z,4.93
2018-04-10T10:25:55.955Z,6.03
2018-04-10T10:28:24.335Z,4.30
2018-04-10T10:30:52.734Z,5.17
2018-04-10T10:33:21.155Z,4.80
2018-04-10T10:35:49.579Z,5.87
2018-04-10T10:38:18.023Z,4.00
2018-04-10T10:40:46.442Z,5.27
2018-04-10T10:43:14.927Z,4.33
2018-04-10T10:45:43.363Z,4.27
2018-04-10T10:48:11.800Z,4.87
2018-04-10T10:50:40.239Z,5.87
2018-04-10T10:53:08.717Z,5.03
2018-04-10T10:55:37.199Z,6.63
2018-04-10T10:58:05.773Z,4.50
2018-04-10T11:00:34.214Z,4.75
2018-04-10T11:03:03.016Z,4.60
2018-04-10T11:05:31.474Z,4.50
2018-04-10T11:07:59.900Z,5.20
2018-04-10T11:10:28.313Z,3.90
2018-04-10T11:12:56.771Z,6.05
2018-04-10T11:15:25.215Z,4.55
2018-04-10T11:17:53.635Z,4.22
2018-04-10T11:20:22.114Z,4.57
2018-04-10T11:22:50.498Z,4.65
2018-04-10T11:25:18.887Z,4.75
2018-04-10T11:27:47.348Z,5.35
2018-04-10T11:30:15.775Z,4.78
2018-04-10T11:32:44.188Z,6.22
2018-04-10T11:35:12.656Z,5.32
2018-04-10T11:37:41.105Z,5.85
2018-04-10T11:40:09.640Z,6.45
2018-04-10T11:42:38.062Z,5.12
2018-04-10T11:45:06.552Z,4.30
2018-04-10T11:47:34.995Z,4.75
2018-04-10T11:50:03.497Z,4.82
2018-04-10T11:52:31.941Z,4.82
2018-04-10T11:55:00.393Z,4.15
2018-04-10T11:57:28.886Z,4.12
2018-04-10T11:59:57.353Z,3.87
2018-04-10T12:02:26.007Z,5.45
2018-04-10T12:04:54.455Z,4.25
2018-04-10T12:07:22.903Z,5.10
2018-04-10T12:09:51.296Z,4.10
2018-04-10T12:12:19.790Z,5.95
2018-04-10T12:14:48.175Z,5.05
2018-04-10T12:17:16.963Z,4.70
2018-04-10T12:19:45.434Z,6.25
2018-04-10T12:22:13.931Z,6.03
2018-04-10T12:24:42.691Z,4.53
2018-04-10T12:27:11.144Z,6.00
2018-04-10T12:29:39.616Z,4.68
2018-04-10T12:32:08.062Z,4.72
2018-04-10T12:34:36.492Z,4.65
2018-04-10T12:37:04.972Z,6.07
2018-04-10T12:39:33.393Z,5.15
2018-04-10T12:42:01.790Z,4.82
2018-04-10T12:44:30.251Z,4.55
2018-04-10T12:46:58.670Z,6.37
2018-04-10T12:49:27.059Z,5.15
2018-04-10T12:51:55.502Z,5.03
2018-04-10T12:54:23.930Z,3.92
2018-04-10T12:56:52.371Z,5.45
2018-04-10T12:59:20.825Z,4.87
2018-04-10T13:01:49.216Z,4.45
2018-04-10T13:04:17.662Z,6.68
2018-04-10T13:06:46.110Z,6.53
2018-04-10T13:09:14.524Z,4.53
2018-04-10T13:11:42.987Z,6.25
2018-04-10T13:14:11.412Z,6.47
2018-04-10T13:16:40.170Z,3.92
2018-04-10T13:19:08.573Z,5.40
2018-04-10T13:21:37.256Z,5.03
2018-04-10T13:24:06.118Z,7.20
2018-04-10T13:26:34.627Z,7.12
2018-04-10T13:29:03.057Z,6.28
2018-04-10T13:31:31.870Z,5.40
2018-04-10T13:34:00.258Z,8.05
2018-04-10T13:36:28.731Z,5.12
2018-04-10T13:38:57.862Z,6.82
2018-04-10T13:41:26.289Z,5.43
2018-04-10T13:43:54.730Z,5.03
2018-04-10T13:46:23.837Z,4.75
2018-04-10T13:48:52.267Z,4.18
2018-04-10T13:51:20.667Z,4.57
2018-04-10T13:53:50.196Z,5.28
2018-04-10T13:56:18.613Z,4.43
2018-04-10T13:58:47.072Z,5.12
2018-04-10T14:01:15.799Z,4.45
2018-04-10T14:03:44.365Z,4.90
2018-04-10T14:06:12.775Z,5.12
2018-04-10T14:08:41.415Z,3.90
2018-04-10T14:11:09.965Z,4.05
2018-04-10T14:13:38.434Z,4.95
2018-04-10T14:16:06.850Z,5.20
2018-04-10T14:18:35.268Z,4.05
2018-04-10T14:21:03.790Z,3.67
2018-04-10T14:23:32.322Z,4.45
2018-04-10T14:26:00.798Z,4.35
2018-04-10T14:28:29.247Z,4.10
2018-04-10T14:30:58.829Z,5.05
2018-04-10T14:33:27.283Z,4.05
2018-04-10T14:35:55.710Z,4.05
2018-04-10T14:38:24.568Z,4.10
2018-04-10T14:40:52.992Z,3.40
2018-04-10T14:43:21.408Z,3.53
2018-04-10T14:45:49.930Z,4.12
2018-04-10T14:48:18.339Z,3.60
2018-04-10T14:50:46.809Z,4.60
2018-04-10T14:53:15.253Z,3.67
2018-04-10T14:55:43.777Z,5.07
2018-04-10T14:58:12.222Z,4.10
2018-04-10T15:00:40.671Z,3.05
2018-04-10T15:03:09.080Z,4.18
2018-04-10T15:05:37.560Z,4.32
2018-04-10T15:08:06.003Z,4.55
2018-04-10T15:10:34.470Z,4.15
2018-04-10T15:13:02.947Z,4.22
2018-04-10T15:15:31.498Z,4.87
2018-04-10T15:17:59.908Z,5.90
2018-04-10T15:20:28.387Z,3.47
2018-04-10T15:22:56.840Z,4.03
2018-04-10T15:25:25.333Z,3.25
2018-04-10T15:27:53.821Z,3.72
2018-04-10T15:30:22.253Z,4.82
2018-04-10T15:32:50.705Z,3.90
2018-04-10T15:35:19.116Z,3.83
2018-04-10T15:37:47.589Z,4.30
2018-04-10T15:40:16.046Z,4.80
2018-04-10T15:42:45.671Z,4.20
2018-04-10T15:45:14.134Z,4.50
2018-04-10T15:47:42.611Z,4.75
2018-04-10T15:50:11.040Z,6.33
2018-04-10T15:52:39.547Z,4.22
2018-04-10T15:55:07.968Z,4.47
2018-04-10T15:57:36.595Z,4.63
2018-04-10T16:00:05.124Z,5.23
2018-04-10T16:02:33.518Z,4.47
2018-04-10T16:05:01.914Z,5.60
2018-04-10T16:07:30.363Z,3.97
2018-04-10T16:09:58.764Z,5.53
2018-04-10T16:12:27.290Z,4.23
2018-04-10T16:14:55.714Z,4.27
2018-04-10T16:17:24.149Z,5.23
2018-04-10T16:19:52.541Z,4.60
2018-04-10T16:22:20.987Z,4.70
2018-04-10T16:24:49.425Z,4.47
2018-04-10T16:27:17.847Z,5.37
2018-04-10T16:29:46.330Z,4.27
2018-04-10T16:32:14.772Z,3.53
2018-04-10T16:34:43.178Z,3.17
2018-04-10T16:37:11.647Z,4.23
2018-04-10T16:39:40.076Z,3.63
2018-04-10T16:42:08.616Z,5.70
2018-04-10T16:44:37.799Z,4.67
2018-04-10T16:47:06.202Z,4.90
2018-04-10T16:49:34.665Z,3.27
2018-04-10T16:52:03.077Z,3.83
2018-04-10T16:54:31.514Z,4.40
2018-04-10T16:56:59.993Z,5.43
2018-04-10T16:59:28.415Z,6.57
2018-04-10T17:01:56.888Z,6.03
2018-04-10T17:04:25.302Z,6.47
2018-04-10T17:06:53.768Z,4.43
2018-04-10T17:09:22.164Z,4.20
2018-04-10T17:11:50.566Z,5.40
2018-04-10T17:14:19.039Z,4.67
2018-04-10T17:16:47.501Z,3.77
2018-04-10T17:19:15.919Z,4.50
2018-04-10T17:21:44.371Z,4.23
2018-04-10T17:24:12.847Z,5.63
2018-04-10T17:26:41.255Z,5.43
2018-04-10T17:29:09.739Z,3.70
2018-04-10T17:31:38.154Z,3.83
2018-04-10T17:34:06.613Z,3.10
2018-04-10T17:36:35.089Z,3.37
2018-04-10T17:39:03.899Z,3.77
2018-04-10T17:41:32.394Z,4.33
2018-04-10T17:44:00.775Z,4.80
2018-04-10T17:46:29.888Z,5.27
2018-04-10T17:48:58.334Z,4.40
2018-04-10T17:51:26.714Z,6.23
2018-04-10T17:53:55.192Z,8.17
2018-04-10T17:56:23.626Z,8.13
2018-04-10T17:58:52.138Z,6.97
2018-04-10T18:01:20.561Z,5.70
2018-04-10T18:03:48.952Z,6.10
2018-04-10T18:06:17.381Z,5.60
2018-04-10T18:08:45.827Z,5.57
2018-04-10T18:11:14.232Z,5.57
2018-04-10T18:13:42.710Z,5.13
2018-04-10T18:16:11.209Z,4.97
2018-04-10T18:18:39.614Z,6.03
2018-04-10T18:21:08.122Z,5.40
2018-04-10T18:23:36.663Z,6.97
2018-04-10T18:26:05.240Z,4.93
2018-04-10T18:28:33.670Z,5.00
2018-04-10T18:31:02.078Z,5.07
2018-04-10T18:33:30.483Z,5.37
2018-04-10T18:35:59.049Z,4.93
2018-04-10T18:38:27.478Z,5.80
2018-04-10T18:40:55.925Z,7.73
2018-04-10T18:43:24.332Z,8.43
2018-04-10T18:45:52.827Z,6.43
2018-04-10T18:48:21.218Z,6.27
2018-04-10T18:50:49.598Z,5.93
2018-04-10T18:53:18.022Z,7.67
2018-04-10T18:55:46.459Z,8.77
2018-04-10T18:58:14.922Z,4.93
2018-04-10T19:00:43.413Z,4.10
2018-04-10T19:03:11.807Z,4.03
2018-04-10T19:05:40.271Z,5.07
2018-04-10T19:08:08.667Z,6.30
2018-04-10T19:10:37.175Z,7.17
2018-04-10T19:13:05.608Z,8.00
2018-04-10T19:15:34.112Z,7.30
2018-04-10T19:18:02.698Z,8.53
2018-04-10T19:20:31.215Z,7.40
2018-04-10T19:22:59.610Z,7.17
2018-04-10T19:25:28.040Z,8.87
2018-04-10T19:27:56.445Z,12.00
2018-04-10T19:30:24.899Z,22.90
2018-04-10T19:32:53.351Z,20.60
2018-04-10T19:35:21.821Z,24.90
2018-04-10T19:37:50.200Z,15.97
2018-04-10T19:40:18.650Z,11.47
2018-04-10T19:42:47.075Z,13.37
2018-04-10T19:45:15.494Z,9.37
2018-04-10T19:47:43.926Z,8.33
2018-04-10T19:50:12.522Z,9.07
2018-04-10T19:52:41.079Z,7.20
2018-04-10T19:55:09.546Z,6.23
2018-04-10T19:57:37.960Z,6.30
2018-04-10T20:00:06.430Z,6.30
2018-04-10T20:02:34.858Z,6.43
2018-04-10T20:05:03.341Z,5.73
2018-04-10T20:07:31.746Z,5.70
2018-04-10T20:10:00.163Z,5.83
2018-04-10T20:12:28.591Z,7.27
2018-04-10T20:14:56.979Z,6.33
2018-04-10T20:17:25.424Z,7.27
2018-04-10T20:19:53.897Z,6.60
2018-04-10T20:22:22.383Z,5.70
2018-04-10T20:24:50.829Z,6.17
2018-04-10T20:27:19.248Z,6.63
2018-04-10T20:29:47.654Z,6.07
2018-04-10T20:32:16.057Z,6.93
2018-04-10T20:34:44.464Z,6.03
2018-04-10T20:37:12.842Z,6.07
2018-04-10T20:39:41.286Z,8.57
2018-04-10T20:42:09.682Z,7.97
2018-04-10T20:44:38.119Z,9.90
2018-04-10T20:47:06.622Z,6.53
2018-04-10T20:49:35.082Z,6.87
2018-04-10T20:52:03.510Z,6.43
2018-04-10T20:54:31.929Z,7.70
2018-04-10T20:57:00.336Z,7.10
2018-04-10T20:59:28.802Z,7.13
2018-04-10T21:01:57.186Z,6.57
2018-04-10T21:04:25.576Z,6.20
2018-04-10T21:06:54.003Z,6.60
2018-04-10T21:09:22.502Z,6.90
2018-04-10T21:11:50.943Z,6.83
2018-04-10T21:14:19.356Z,6.23
2018-04-10T21:16:47.769Z,5.97
2018-04-10T21:19:16.200Z,5.93
2018-04-10T21:21:44.702Z,5.10
2018-04-10T21:24:13.141Z,6.30
2018-04-10T21:26:41.595Z,4.93
2018-04-10T21:29:10.079Z,5.10
2018-04-10T21:31:38.553Z,5.63
2018-04-10T21:34:06.987Z,4.80
2018-04-10T21:36:35.438Z,4.90
2018-04-10T21:39:03.916Z,5.13
2018-04-10T21:41:32.334Z,4.40
2018-04-10T21:44:00.762Z,4.80
2018-04-10T21:46:29.156Z,4.60
2018-04-10T21:48:57.626Z,3.93
2018-04-10T21:51:26.013Z,3.90
2018-04-10T21:53:54.429Z,3.77
2018-04-10T21:56:22.852Z,5.27
2018-04-10T21:58:51.319Z,3.27
2018-04-10T22:01:19.931Z,5.30
2018-04-10T22:03:48.331Z,5.20
2018-04-10T22:06:16.863Z,4.60
2018-04-10T22:08:45.365Z,4.47
2018-04-10T22:11:13.775Z,4.27
2018-04-10T22:13:42.163Z,5.83
2018-04-10T22:16:10.603Z,4.20
2018-04-10T22:18:38.999Z,4.60
2018-04-10T22:21:07.400Z,4.07
2018-04-10T22:23:35.837Z,4.33
2018-04-10T22:26:04.249Z,3.70
2018-04-10T22:28:32.863Z,4.10
2018-04-10T22:31:01.293Z,4.30
2018-04-10T22:33:29.685Z,5.07
2018-04-10T22:35:58.366Z,4.53
2018-04-10T22:38:26.789Z,5.40
2018-04-10T22:40:55.167Z,4.10
2018-04-10T22:43:24.223Z,4.20
2018-04-10T22:45:52.639Z,4.30
2018-04-10T22:48:21.103Z,4.30
2018-04-10T22:50:49.846Z,4.17
2018-04-10T22:53:18.233Z,4.63
2018-04-10T22:55:46.635Z,4.50
2018-04-10T22:58:15.093Z,3.73
2018-04-10T23:00:49.091Z,4.23
2018-04-10T23:03:17.541Z,5.17
2018-04-10T23:05:45.993Z,5.07
2018-04-10T23:08:14.456Z,4.90
2018-04-10T23:10:42.930Z,4.60
2018-04-10T23:13:11.375Z,4.93
2018-04-10T23:15:39.830Z,5.23
2018-04-10T23:18:08.243Z,5.47
2018-04-10T23:20:36.692Z,4.33
2018-04-10T23:23:05.107Z,4.63
2018-04-10T23:25:33.643Z,4.30
2018-04-10T23:28:02.075Z,5.10
2018-04-10T23:30:30.491Z,5.63
2018-04-10T23:32:58.958Z,4.80
2018-04-10T23:35:27.385Z,5.37
2018-04-10T23:37:55.835Z,5.50
2018-04-10T23:40:24.240Z,4.47
2018-04-10T23:42:52.675Z,4.43
2018-04-10T23:45:21.088Z,4.40
2018-04-10T23:47:49.507Z,4.23
2018-04-10T23:50:17.892Z,4.23
2018-04-10T23:52:46.286Z,3.80
2018-04-10T23:55:14.679Z,3.53
2018-04-10T23:57:43.115Z,3.70
